createdAt,value
2018-02-09T00:00:24.687Z,1015.48
2018-02-09T00:01:24.697Z,1015.45
2018-02-09T00:02:24.707Z,1015.44
2018-02-09T00:03:24.711Z,1015.48
2018-02-09T00:04:24.725Z,1015.48
2018-02-09T00:05:24.730Z,1015.46
2018-02-09T00:06:24.745Z,1015.49
2018-02-09T00:07:24.755Z,1015.48
2018-02-09T00:08:24.760Z,1015.48
2018-02-09T00:09:24.780Z,1015.48
2018-02-09T00:10:24.787Z,1015.48
2018-02-09T00:11:24.789Z,1015.47
2018-02-09T00:13:24.813Z,1015.52
2018-02-09T00:14:24.824Z,1015.53
2018-02-09T00:15:24.832Z,1015.53
2018-02-09T00:16:24.838Z,1015.52
2018-02-09T00:17:24.846Z,1015.53
2018-02-09T00:18:24.861Z,1015.52
2018-02-09T00:19:24.870Z,1015.54
2018-02-09T00:20:24.882Z,1015.55
2018-02-09T00:21:24.884Z,1015.52
2018-02-09T00:22:24.896Z,1015.51
2018-02-09T00:23:24.908Z,1015.53
2018-02-09T00:24:24.921Z,1015.53
2018-02-09T00:25:24.927Z,1015.53
2018-02-09T00:26:24.936Z,1015.54
2018-02-09T00:27:24.949Z,1015.56
2018-02-09T00:29:24.965Z,1015.52
2018-02-09T00:30:24.973Z,1015.52
2018-02-09T00:31:24.987Z,1015.54
2018-02-09T00:32:24.994Z,1015.52
2018-02-09T00:33:25.006Z,1015.53
2018-02-09T00:34:25.012Z,1015.52
2018-02-09T00:35:25.024Z,1015.6
2018-02-09T00:36:25.036Z,1015.55
2018-02-09T00:37:25.044Z,1015.55
2018-02-09T00:38:25.053Z,1015.56
2018-02-09T00:39:25.059Z,1015.51
2018-02-09T00:40:25.072Z,1015.55
2018-02-09T00:41:25.075Z,1015.52
2018-02-09T00:42:25.090Z,1015.54
2018-02-09T00:43:25.097Z,1015.51
2018-02-09T00:45:25.122Z,1015.49
2018-02-09T00:46:25.125Z,1015.49
2018-02-09T00:47:25.137Z,1015.51
2018-02-09T00:48:25.142Z,1015.51
2018-02-09T00:49:25.162Z,1015.5
2018-02-09T00:50:25.169Z,1015.5
2018-02-09T00:51:25.173Z,1015.5
2018-02-09T00:52:25.192Z,1015.44
2018-02-09T00:53:25.193Z,1015.46
2018-02-09T00:54:25.207Z,1015.46
2018-02-09T00:55:25.212Z,1015.46
2018-02-09T00:56:25.218Z,1015.45
2018-02-09T00:57:25.235Z,1015.47
2018-02-09T00:58:25.248Z,1015.45
2018-02-09T00:59:25.248Z,1015.47
2018-02-09T01:01:25.277Z,1015.46
2018-02-09T01:02:25.279Z,1015.45
2018-02-09T01:03:25.289Z,1015.44
2018-02-09T01:04:25.297Z,1015.48
2018-02-09T01:05:25.308Z,1015.47
2018-02-09T01:06:25.313Z,1015.43
2018-02-09T01:07:25.325Z,1015.44
2018-02-09T01:08:25.337Z,1015.47
2018-02-09T01:09:25.345Z,1015.46
2018-02-09T01:10:25.355Z,1015.46
2018-02-09T01:11:25.362Z,1015.47
2018-02-09T01:12:25.377Z,1015.48
2018-02-09T01:13:25.381Z,1015.46
2018-02-09T01:14:25.397Z,1015.49
2018-02-09T01:16:25.411Z,1015.44
2018-02-09T01:17:25.420Z,1015.46
2018-02-09T01:18:25.430Z,1015.41
2018-02-09T01:19:25.441Z,1015.39
2018-02-09T01:20:25.449Z,1015.41
2018-02-09T01:21:25.458Z,1015.37
2018-02-09T01:22:25.465Z,1015.41
2018-02-09T01:23:25.478Z,1015.35
2018-02-09T01:24:25.494Z,1015.34
2018-02-09T01:25:25.498Z,1015.35
2018-02-09T01:26:25.509Z,1015.35
2018-02-09T01:27:25.519Z,1015.34
2018-02-09T01:28:25.527Z,1015.34
2018-02-09T01:29:25.545Z,1015.33
2018-02-09T01:30:25.547Z,1015.28
2018-02-09T01:31:25.556Z,1015.31
2018-02-09T01:32:25.568Z,1015.34
2018-02-09T01:33:25.571Z,1015.3
2018-02-09T01:34:25.578Z,1015.29
2018-02-09T01:35:25.593Z,1015.32
2018-02-09T01:36:25.607Z,1015.3
2018-02-09T01:37:25.615Z,1015.24
2018-02-09T01:38:25.626Z,1015.25
2018-02-09T01:39:25.628Z,1015.23
2018-02-09T01:40:25.641Z,1015.25
2018-02-09T01:41:25.647Z,1015.27
2018-02-09T01:42:25.666Z,1015.25
2018-02-09T01:43:25.714Z,1015.26
2018-02-09T01:44:25.672Z,1015.22
2018-02-09T01:45:25.683Z,1015.26
2018-02-09T01:46:25.699Z,1015.18
2018-02-09T01:48:25.719Z,1015.19
2018-02-09T01:49:25.724Z,1015.22
2018-02-09T01:50:25.738Z,1015.19
2018-02-09T01:51:25.741Z,1015.17
2018-02-09T01:52:25.748Z,1015.11
2018-02-09T01:53:25.759Z,1015.15
2018-02-09T01:54:25.774Z,1015.1
2018-02-09T01:55:25.777Z,1015.12
2018-02-09T01:56:25.787Z,1015.1
2018-02-09T01:57:25.795Z,1015.06
2018-02-09T01:58:25.804Z,1015.01
2018-02-09T01:59:25.820Z,1015.06
2018-02-09T02:00:25.827Z,1015.03
2018-02-09T02:01:25.835Z,1015.08
2018-02-09T02:02:25.840Z,1015.07
2018-02-09T02:04:25.862Z,1015.04
2018-02-09T02:05:25.869Z,1015.04
2018-02-09T02:06:25.880Z,1015.04
2018-02-09T02:07:25.894Z,1015
2018-02-09T02:08:25.897Z,1014.98
2018-02-09T02:09:25.909Z,1014.98
2018-02-09T02:10:25.914Z,1015
2018-02-09T02:11:25.922Z,1014.95
2018-02-09T02:12:25.931Z,1014.98
2018-02-09T02:13:25.950Z,1014.97
2018-02-09T02:14:25.960Z,1015.01
2018-02-09T02:15:25.961Z,1014.99
2018-02-09T02:16:25.969Z,1014.97
2018-02-09T02:17:25.980Z,1014.96
2018-02-09T02:18:25.987Z,1014.94
2018-02-09T02:20:26.008Z,1014.96
2018-02-09T02:21:26.018Z,1014.93
2018-02-09T02:22:26.024Z,1014.94
2018-02-09T02:23:26.033Z,1014.91
2018-02-09T02:24:26.050Z,1014.98
2018-02-09T02:25:26.051Z,1014.92
2018-02-09T02:26:26.067Z,1014.9
2018-02-09T02:27:26.077Z,1014.9
2018-02-09T02:28:26.083Z,1014.88
2018-02-09T02:29:26.090Z,1014.89
2018-02-09T02:30:26.104Z,1014.87
2018-02-09T02:31:26.110Z,1014.87
2018-02-09T02:32:26.120Z,1014.85
2018-02-09T02:33:26.128Z,1014.83
2018-02-09T02:34:26.139Z,1014.82
2018-02-09T02:36:26.158Z,1014.82
2018-02-09T02:37:26.168Z,1014.8
2018-02-09T02:38:26.174Z,1014.79
2018-02-09T02:39:26.186Z,1014.77
2018-02-09T02:40:26.191Z,1014.79
2018-02-09T02:41:26.201Z,1014.81
2018-02-09T02:42:26.215Z,1014.79
2018-02-09T02:43:26.224Z,1014.79
2018-02-09T02:44:26.232Z,1014.85
2018-02-09T02:45:26.244Z,1014.83
2018-02-09T02:46:26.248Z,1014.79
2018-02-09T02:47:26.260Z,1014.8
2018-02-09T02:48:26.267Z,1014.75
2018-02-09T02:49:26.275Z,1014.76
2018-02-09T02:51:26.299Z,1014.73
2018-02-09T02:52:26.307Z,1014.73
2018-02-09T02:53:26.319Z,1014.71
2018-02-09T02:54:26.327Z,1014.71
2018-02-09T02:55:26.337Z,1014.69
2018-02-09T02:56:26.344Z,1014.69
2018-02-09T02:57:26.348Z,1014.67
2018-02-09T02:58:26.360Z,1014.69
2018-02-09T02:59:26.365Z,1014.74
2018-02-09T03:00:26.398Z,1014.68
2018-02-09T03:01:26.388Z,1014.71
2018-02-09T03:02:26.403Z,1014.66
2018-02-09T03:03:26.410Z,1014.71
2018-02-09T03:04:26.416Z,1014.68
2018-02-09T03:05:26.428Z,1014.64
2018-02-09T03:06:26.431Z,1014.68
2018-02-09T03:07:26.440Z,1014.64
2018-02-09T03:08:26.454Z,1014.64
2018-02-09T03:09:26.458Z,1014.62
2018-02-09T03:10:26.472Z,1014.6
2018-02-09T03:11:26.482Z,1014.58
2018-02-09T03:12:26.491Z,1014.58
2018-02-09T03:13:26.501Z,1014.56
2018-02-09T03:14:26.506Z,1014.52
2018-02-09T03:15:26.522Z,1014.49
2018-02-09T03:16:26.527Z,1014.51
2018-02-09T03:17:26.533Z,1014.46
2018-02-09T03:18:26.539Z,1014.48
2018-02-09T03:19:26.550Z,1014.45
2018-02-09T03:20:26.568Z,1014.46
2018-02-09T03:21:26.570Z,1014.43
2018-02-09T03:23:26.585Z,1014.41
2018-02-09T03:24:26.597Z,1014.36
2018-02-09T03:25:26.613Z,1014.37
2018-02-09T03:26:26.614Z,1014.43
2018-02-09T03:27:26.625Z,1014.35
2018-02-09T03:28:26.639Z,1014.4
2018-02-09T03:29:26.647Z,1014.41
2018-02-09T03:30:26.649Z,1014.39
2018-02-09T03:31:26.660Z,1014.34
2018-02-09T03:32:26.672Z,1014.33
2018-02-09T03:33:26.682Z,1014.33
2018-02-09T03:34:26.695Z,1014.33
2018-02-09T03:35:26.703Z,1014.33
2018-02-09T03:36:26.710Z,1014.34
2018-02-09T03:37:26.712Z,1014.37
2018-02-09T03:39:26.738Z,1014.32
2018-02-09T03:40:26.748Z,1014.34
2018-02-09T03:41:26.756Z,1014.38
2018-02-09T03:42:26.758Z,1014.36
2018-02-09T03:43:26.772Z,1014.37
2018-02-09T03:44:26.781Z,1014.38
2018-02-09T03:45:26.791Z,1014.39
2018-02-09T03:46:26.803Z,1014.38
2018-02-09T03:47:26.808Z,1014.37
2018-02-09T03:48:26.819Z,1014.34
2018-02-09T03:49:26.831Z,1014.33
2018-02-09T03:50:26.834Z,1014.32
2018-02-09T03:51:26.839Z,1014.34
2018-02-09T03:52:26.854Z,1014.37
2018-02-09T03:53:26.862Z,1014.31
2018-02-09T03:55:26.883Z,1014.33
2018-02-09T03:56:26.889Z,1014.36
2018-02-09T03:57:26.900Z,1014.4
2018-02-09T03:58:26.903Z,1014.4
2018-02-09T03:59:26.921Z,1014.4
2018-02-09T04:00:26.921Z,1014.41
2018-02-09T04:01:26.936Z,1014.41
2018-02-09T04:02:26.945Z,1014.4
2018-02-09T04:03:26.951Z,1014.36
2018-02-09T04:04:26.961Z,1014.37
2018-02-09T04:05:26.972Z,1014.36
2018-02-09T04:06:26.981Z,1014.37
2018-02-09T04:07:26.991Z,1014.36
2018-02-09T04:08:26.999Z,1014.37
2018-02-09T04:09:27.001Z,1014.38
2018-02-09T04:11:27.026Z,1014.4
2018-02-09T04:12:27.040Z,1014.37
2018-02-09T04:13:27.040Z,1014.33
2018-02-09T04:14:27.055Z,1014.32
2018-02-09T04:15:27.064Z,1014.32
2018-02-09T04:16:27.065Z,1014.3
2018-02-09T04:17:27.077Z,1014.31
2018-02-09T04:18:27.092Z,1014.33
2018-02-09T04:19:27.102Z,1014.3
2018-02-09T04:20:27.109Z,1014.27
2018-02-09T04:21:27.116Z,1014.23
2018-02-09T04:22:27.122Z,1014.26
2018-02-09T04:23:27.138Z,1014.25
2018-02-09T04:24:27.145Z,1014.22
2018-02-09T04:26:27.160Z,1014.23
2018-02-09T04:27:27.165Z,1014.23
2018-02-09T04:28:27.181Z,1014.24
2018-02-09T04:29:27.189Z,1014.24
2018-02-09T04:30:27.203Z,1014.24
2018-02-09T04:31:27.212Z,1014.22
2018-02-09T04:32:27.212Z,1014.25
2018-02-09T04:33:27.230Z,1014.23
2018-02-09T04:34:27.237Z,1014.23
2018-02-09T04:35:27.244Z,1014.23
2018-02-09T04:36:27.252Z,1014.2
2018-02-09T04:37:27.261Z,1014.25
2018-02-09T04:38:27.271Z,1014.24
2018-02-09T04:39:27.274Z,1014.24
2018-02-09T04:40:27.291Z,1014.23
2018-02-09T04:41:27.299Z,1014.21
2018-02-09T04:42:27.300Z,1014.21
2018-02-09T04:43:27.311Z,1014.21
2018-02-09T04:44:27.323Z,1014.18
2018-02-09T04:45:27.333Z,1014.17
2018-02-09T04:46:27.343Z,1014.21
2018-02-09T04:47:27.345Z,1014.23
2018-02-09T04:48:27.356Z,1014.24
2018-02-09T04:49:27.364Z,1014.27
2018-02-09T04:50:27.378Z,1014.23
2018-02-09T04:51:27.385Z,1014.26
2018-02-09T04:52:27.394Z,1014.27
2018-02-09T04:53:27.403Z,1014.22
2018-02-09T04:54:27.415Z,1014.21
2018-02-09T04:55:27.422Z,1014.2
2018-02-09T04:56:27.429Z,1014.19
2018-02-09T04:58:27.450Z,1014.18
2018-02-09T04:59:27.459Z,1014.17
2018-02-09T05:00:27.466Z,1014.2
2018-02-09T05:01:27.474Z,1014.18
2018-02-09T05:02:27.490Z,1014.2
2018-02-09T05:03:27.500Z,1014.16
2018-02-09T05:04:27.501Z,1014.19
2018-02-09T05:05:27.607Z,1014.16
2018-02-09T05:06:27.518Z,1014.18
2018-02-09T05:07:27.526Z,1014.2
2018-02-09T05:08:27.544Z,1014.19
2018-02-09T05:09:27.549Z,1014.18
2018-02-09T05:10:27.552Z,1014.2
2018-02-09T05:11:27.564Z,1014.19
2018-02-09T05:12:27.579Z,1014.19
2018-02-09T05:14:27.593Z,1014.18
2018-02-09T05:15:27.601Z,1014.15
2018-02-09T05:16:27.612Z,1014.14
2018-02-09T05:17:27.620Z,1014.15
2018-02-09T05:18:27.630Z,1014.13
2018-02-09T05:19:27.632Z,1014.15
2018-02-09T05:20:27.652Z,1014.12
2018-02-09T05:21:27.657Z,1014.09
2018-02-09T05:22:27.664Z,1014.1
2018-02-09T05:23:27.668Z,1014.09
2018-02-09T05:24:27.685Z,1014.11
2018-02-09T05:25:27.691Z,1014.1
2018-02-09T05:26:27.697Z,1014.12
2018-02-09T05:27:27.712Z,1014.12
2018-02-09T05:28:27.716Z,1014.1
2018-02-09T05:30:27.737Z,1014.1
2018-02-09T05:31:27.747Z,1014.02
2018-02-09T05:32:27.751Z,1014.08
2018-02-09T05:33:27.763Z,1014.07
2018-02-09T05:34:27.777Z,1014.02
2018-02-09T05:35:27.778Z,1014.03
2018-02-09T05:36:27.793Z,1014.03
2018-02-09T05:37:27.799Z,1014.04
2018-02-09T05:38:27.810Z,1014.05
2018-02-09T05:39:27.818Z,1014.06
2018-02-09T05:40:27.832Z,1014.05
2018-02-09T05:41:27.835Z,1014.03
2018-02-09T05:42:27.850Z,1014.05
2018-02-09T05:43:27.856Z,1014.02
2018-02-09T05:44:27.859Z,1014.05
2018-02-09T05:46:27.898Z,1014.06
2018-02-09T05:47:27.896Z,1014.04
2018-02-09T05:48:27.894Z,1014.07
2018-02-09T05:49:27.913Z,1013.99
2018-02-09T05:50:27.920Z,1013.98
2018-02-09T05:51:27.929Z,1014.02
2018-02-09T05:52:27.935Z,1014.05
2018-02-09T05:53:27.945Z,1014.02
2018-02-09T05:54:27.954Z,1014
2018-02-09T05:55:27.962Z,1013.95
2018-02-09T05:56:27.969Z,1013.99
2018-02-09T05:57:27.986Z,1013.96
2018-02-09T05:58:27.990Z,1013.95
2018-02-09T05:59:28.002Z,1013.93
2018-02-09T06:01:28.018Z,1013.93
2018-02-09T06:02:28.034Z,1013.94
2018-02-09T06:03:28.038Z,1013.89
2018-02-09T06:04:28.049Z,1013.92
2018-02-09T06:05:28.058Z,1013.9
2018-02-09T06:06:28.065Z,1013.85
2018-02-09T06:07:28.074Z,1013.88
2018-02-09T06:08:28.085Z,1013.93
2018-02-09T06:09:28.090Z,1013.89
2018-02-09T06:10:28.102Z,1013.88
2018-02-09T06:11:28.114Z,1013.93
2018-02-09T06:12:28.126Z,1013.9
2018-02-09T06:13:28.130Z,1013.77
2018-02-09T06:14:28.141Z,1013.85
2018-02-09T06:15:28.144Z,1013.84
2018-02-09T06:16:28.152Z,1013.84
2018-02-09T06:17:28.163Z,1013.78
2018-02-09T06:18:28.175Z,1013.83
2018-02-09T06:19:28.182Z,1013.84
2018-02-09T06:20:28.193Z,1013.75
2018-02-09T06:21:28.199Z,1013.81
2018-02-09T06:22:28.212Z,1013.84
2018-02-09T06:23:28.220Z,1013.81
2018-02-09T06:24:28.234Z,1013.84
2018-02-09T06:25:28.239Z,1013.8
2018-02-09T06:26:28.246Z,1013.8
2018-02-09T06:27:28.262Z,1013.8
2018-02-09T06:28:28.269Z,1013.75
2018-02-09T06:29:28.275Z,1013.76
2018-02-09T06:30:28.290Z,1013.78
2018-02-09T06:31:28.293Z,1013.82
2018-02-09T06:33:28.313Z,1013.8
2018-02-09T06:34:28.320Z,1013.79
2018-02-09T06:35:28.332Z,1013.82
2018-02-09T06:36:28.339Z,1013.78
2018-02-09T06:37:28.354Z,1013.79
2018-02-09T06:38:28.363Z,1013.75
2018-02-09T06:39:28.368Z,1013.75
2018-02-09T06:40:28.382Z,1013.8
2018-02-09T06:41:28.386Z,1013.78
2018-02-09T06:42:28.401Z,1013.79
2018-02-09T06:43:28.404Z,1013.72
2018-02-09T06:44:28.413Z,1013.75
2018-02-09T06:45:28.426Z,1013.74
2018-02-09T06:46:28.435Z,1013.75
2018-02-09T06:47:28.446Z,1013.8
2018-02-09T06:49:28.465Z,1013.8
2018-02-09T06:50:28.508Z,1013.77
2018-02-09T06:51:28.478Z,1013.86
2018-02-09T06:52:28.487Z,1013.82
2018-02-09T06:53:28.502Z,1013.83
2018-02-09T06:54:28.513Z,1013.82
2018-02-09T06:55:28.514Z,1013.83
2018-02-09T06:56:28.531Z,1013.8
2018-02-09T06:57:28.543Z,1013.82
2018-02-09T06:58:28.550Z,1013.84
2018-02-09T06:59:28.553Z,1013.81
2018-02-09T07:00:28.564Z,1013.85
2018-02-09T07:01:28.573Z,1013.81
2018-02-09T07:02:28.586Z,1013.81
2018-02-09T07:03:28.591Z,1013.81
2018-02-09T07:05:28.616Z,1013.77
2018-02-09T07:06:28.623Z,1013.81
2018-02-09T07:07:28.635Z,1013.85
2018-02-09T07:08:28.644Z,1013.84
2018-02-09T07:09:28.650Z,1013.85
2018-02-09T07:10:28.662Z,1013.81
2018-02-09T07:11:28.672Z,1013.85
2018-02-09T07:12:28.677Z,1013.86
2018-02-09T07:13:28.690Z,1013.87
2018-02-09T07:14:28.696Z,1013.86
2018-02-09T07:15:28.710Z,1013.85
2018-02-09T07:16:28.719Z,1013.85
2018-02-09T07:17:28.735Z,1013.86
2018-02-09T07:18:28.734Z,1013.87
2018-02-09T07:19:28.748Z,1013.9
2018-02-09T07:21:28.765Z,1013.9
2018-02-09T07:22:28.776Z,1013.96
2018-02-09T07:23:28.785Z,1013.93
2018-02-09T07:24:28.795Z,1013.89
2018-02-09T07:25:28.811Z,1013.9
2018-02-09T07:26:28.816Z,1013.89
2018-02-09T07:27:28.826Z,1013.9
2018-02-09T07:28:28.840Z,1013.86
2018-02-09T07:29:28.850Z,1013.86
2018-02-09T07:30:28.856Z,1013.83
2018-02-09T07:31:28.868Z,1013.84
2018-02-09T07:32:28.877Z,1013.83
2018-02-09T07:33:28.890Z,1013.82
2018-02-09T07:34:28.897Z,1013.86
2018-02-09T07:36:28.916Z,1013.82
2018-02-09T07:37:28.924Z,1013.82
2018-02-09T07:38:28.931Z,1013.84
2018-02-09T07:39:28.947Z,1013.83
2018-02-09T07:40:28.960Z,1013.84
2018-02-09T07:41:28.967Z,1013.83
2018-02-09T07:42:28.976Z,1013.77
2018-02-09T07:43:28.980Z,1013.81
2018-02-09T07:44:28.991Z,1013.78
2018-02-09T07:45:28.999Z,1013.76
2018-02-09T07:46:29.013Z,1013.8
2018-02-09T07:47:29.027Z,1013.79
2018-02-09T07:48:29.037Z,1013.84
2018-02-09T07:49:29.049Z,1013.86
2018-02-09T07:50:29.057Z,1013.84
2018-02-09T07:51:29.060Z,1013.87
2018-02-09T07:52:29.073Z,1013.81
2018-02-09T07:53:29.086Z,1013.8
2018-02-09T07:54:29.097Z,1013.74
2018-02-09T07:55:29.105Z,1013.74
2018-02-09T07:56:29.113Z,1013.73
2018-02-09T07:57:29.126Z,1013.7
2018-02-09T07:58:29.135Z,1013.68
2018-02-09T07:59:29.143Z,1013.72
2018-02-09T08:00:29.150Z,1013.71
2018-02-09T08:01:29.168Z,1013.78
2018-02-09T08:02:29.329Z,1013.77
2018-02-09T08:03:29.187Z,1013.77
2018-02-09T08:04:29.191Z,1013.74
2018-02-09T08:05:29.201Z,1013.72
2018-02-09T08:06:29.218Z,1013.67
2018-02-09T08:08:29.238Z,1013.72
2018-02-09T08:09:29.248Z,1013.68
2018-02-09T08:10:29.254Z,1013.72
2018-02-09T08:11:29.272Z,1013.7
2018-02-09T08:12:29.283Z,1013.66
2018-02-09T08:13:29.294Z,1013.68
2018-02-09T08:14:29.300Z,1013.67
2018-02-09T08:15:29.310Z,1013.63
2018-02-09T08:16:29.320Z,1013.58
2018-02-09T08:17:29.329Z,1013.59
2018-02-09T08:18:29.342Z,1013.56
2018-02-09T08:19:29.352Z,1013.59
2018-02-09T08:20:29.362Z,1013.61
2018-02-09T08:21:29.371Z,1013.6
2018-02-09T08:22:29.387Z,1013.64
2018-02-09T08:24:29.406Z,1013.56
2018-02-09T08:25:29.425Z,1013.59
2018-02-09T08:26:29.425Z,1013.64
2018-02-09T08:27:29.437Z,1013.6
2018-02-09T08:28:29.446Z,1013.61
2018-02-09T08:29:29.456Z,1013.61
2018-02-09T08:30:29.472Z,1013.62
2018-02-09T08:31:29.479Z,1013.6
2018-02-09T08:32:29.487Z,1013.62
2018-02-09T08:33:29.496Z,1013.63
2018-02-09T08:34:29.512Z,1013.66
2018-02-09T08:35:29.524Z,1013.67
2018-02-09T08:36:29.536Z,1013.7
2018-02-09T08:37:29.537Z,1013.73
2018-02-09T08:38:29.556Z,1013.72
2018-02-09T08:40:29.568Z,1013.69
2018-02-09T08:41:29.587Z,1013.72
2018-02-09T08:42:29.591Z,1013.72
2018-02-09T08:43:29.602Z,1013.7
2018-02-09T08:44:29.618Z,1013.74
2018-02-09T08:45:29.627Z,1013.65
2018-02-09T08:46:29.642Z,1013.69
2018-02-09T08:47:29.649Z,1013.67
2018-02-09T08:48:29.664Z,1013.66
2018-02-09T08:49:29.672Z,1013.61
2018-02-09T08:50:29.686Z,1013.64
2018-02-09T08:51:29.694Z,1013.63
2018-02-09T08:52:29.708Z,1013.61
2018-02-09T08:53:29.721Z,1013.59
2018-02-09T08:54:29.731Z,1013.58
2018-02-09T08:56:29.753Z,1013.58
2018-02-09T08:57:29.771Z,1013.57
2018-02-09T08:58:29.773Z,1013.6
2018-02-09T08:59:29.787Z,1013.59
2018-02-09T09:00:29.797Z,1013.59
2018-02-09T09:01:29.807Z,1013.6
2018-02-09T09:02:29.826Z,1013.57
2018-02-09T09:03:29.831Z,1013.56
2018-02-09T09:04:29.845Z,1013.56
2018-02-09T09:05:29.859Z,1013.58
2018-02-09T09:06:29.871Z,1013.52
2018-02-09T09:07:29.880Z,1013.52
2018-02-09T09:08:29.888Z,1013.54
2018-02-09T09:09:29.909Z,1013.51
2018-02-09T09:11:29.925Z,1013.55
2018-02-09T09:12:29.940Z,1013.53
2018-02-09T09:13:29.949Z,1013.5
2018-02-09T09:14:29.967Z,1013.53
2018-02-09T09:15:29.979Z,1013.57
2018-02-09T09:16:29.986Z,1013.59
2018-02-09T09:17:29.995Z,1013.56
2018-02-09T09:18:30.014Z,1013.55
2018-02-09T09:19:30.020Z,1013.53
2018-02-09T09:20:30.032Z,1013.54
2018-02-09T09:21:30.046Z,1013.52
2018-02-09T09:22:30.060Z,1013.5
2018-02-09T09:23:30.077Z,1013.47
2018-02-09T09:24:30.089Z,1013.54
2018-02-09T09:25:30.101Z,1013.52
2018-02-09T09:26:30.114Z,1013.52
2018-02-09T09:27:30.122Z,1013.49
2018-02-09T09:28:30.144Z,1013.49
2018-02-09T09:29:30.152Z,1013.46
2018-02-09T09:30:30.165Z,1013.47
2018-02-09T09:31:30.175Z,1013.49
2018-02-09T09:32:30.185Z,1013.46
2018-02-09T09:33:30.204Z,1013.41
2018-02-09T09:34:30.213Z,1013.46
2018-02-09T09:35:30.232Z,1013.43
2018-02-09T09:36:30.244Z,1013.43
2018-02-09T09:37:30.249Z,1013.37
2018-02-09T09:38:30.268Z,1013.38
2018-02-09T09:39:30.281Z,1013.34
2018-02-09T09:40:30.294Z,1013.31
2018-02-09T09:41:30.302Z,1013.27
2018-02-09T09:43:30.334Z,1013.27
2018-02-09T09:44:30.341Z,1013.27
2018-02-09T09:45:30.358Z,1013.27
2018-02-09T09:46:30.370Z,1013.27
2018-02-09T09:47:30.380Z,1013.2
2018-02-09T09:48:30.508Z,1013.22
2018-02-09T09:49:30.409Z,1013.24
2018-02-09T09:50:30.416Z,1013.25
2018-02-09T09:51:30.433Z,1013.29
2018-02-09T09:52:30.444Z,1013.3
2018-02-09T09:53:30.458Z,1013.28
2018-02-09T09:54:30.471Z,1013.31
2018-02-09T09:55:30.485Z,1013.29
2018-02-09T09:56:30.496Z,1013.26
2018-02-09T09:57:30.508Z,1013.31
2018-02-09T09:59:30.541Z,1013.28
2018-02-09T10:00:30.553Z,1013.25
2018-02-09T10:01:30.560Z,1013.29
2018-02-09T10:02:30.579Z,1013.26
2018-02-09T10:03:30.593Z,1013.24
2018-02-09T10:04:30.609Z,1013.23
2018-02-09T10:05:30.618Z,1013.25
2018-02-09T10:06:30.629Z,1013.21
2018-02-09T10:07:30.644Z,1013.19
2018-02-09T10:08:30.665Z,1013.17
2018-02-09T10:09:30.671Z,1013.16
2018-02-09T10:10:30.686Z,1013.14
2018-02-09T10:11:30.700Z,1013.17
2018-02-09T10:12:30.712Z,1013.19
2018-02-09T10:13:30.724Z,1013.1
2018-02-09T10:15:30.748Z,1013.1
2018-02-09T10:16:30.770Z,1013.07
2018-02-09T10:17:30.777Z,1013.14
2018-02-09T10:18:30.793Z,1013.11
2018-02-09T10:19:30.803Z,1013.12
2018-02-09T10:20:30.818Z,1013.1
2018-02-09T10:21:30.834Z,1013.06
2018-02-09T10:22:30.845Z,1013.07
2018-02-09T10:23:30.862Z,1013.14
2018-02-09T10:24:30.868Z,1013.11
2018-02-09T10:25:30.883Z,1013.07
2018-02-09T10:26:30.899Z,1013.03
2018-02-09T10:27:30.908Z,1013.03
2018-02-09T10:28:30.926Z,1013.07
2018-02-09T10:29:30.942Z,1012.99
2018-02-09T10:31:30.972Z,1013.05
2018-02-09T10:32:30.980Z,1013.03
2018-02-09T10:33:30.991Z,1013.01
2018-02-09T10:34:31.003Z,1012.96
2018-02-09T10:35:31.023Z,1013
2018-02-09T10:36:31.036Z,1012.98
2018-02-09T10:37:31.049Z,1012.93
2018-02-09T10:38:31.060Z,1012.95
2018-02-09T10:39:31.076Z,1012.96
2018-02-09T10:40:31.090Z,1012.97
2018-02-09T10:41:31.102Z,1012.91
2018-02-09T10:42:31.117Z,1012.88
2018-02-09T10:43:31.126Z,1012.92
2018-02-09T10:44:31.149Z,1012.87
2018-02-09T10:46:31.172Z,1012.86
2018-02-09T10:47:31.189Z,1012.86
2018-02-09T10:48:31.203Z,1012.87
2018-02-09T10:49:31.214Z,1012.88
2018-02-09T10:50:31.227Z,1012.89
2018-02-09T10:51:31.240Z,1012.94
2018-02-09T10:52:31.251Z,1012.91
2018-02-09T10:53:31.266Z,1012.86
2018-02-09T10:54:31.281Z,1012.88
2018-02-09T10:55:31.295Z,1012.83
2018-02-09T10:56:31.309Z,1012.88
2018-02-09T10:57:31.323Z,1012.85
2018-02-09T10:58:31.334Z,1012.87
2018-02-09T10:59:31.355Z,1012.83
2018-02-09T11:00:31.364Z,1012.84
2018-02-09T11:01:31.386Z,1012.79
2018-02-09T11:02:31.388Z,1012.78
2018-02-09T11:03:31.400Z,1012.77
2018-02-09T11:04:31.415Z,1012.8
2018-02-09T11:05:31.427Z,1012.77
2018-02-09T11:06:31.444Z,1012.76
2018-02-09T11:07:31.459Z,1012.78
2018-02-09T11:08:31.472Z,1012.78
2018-02-09T11:09:31.488Z,1012.82
2018-02-09T11:10:31.501Z,1012.82
2018-02-09T11:11:31.513Z,1012.8
2018-02-09T11:12:31.526Z,1012.81
2018-02-09T11:13:31.542Z,1012.76
2018-02-09T11:14:31.560Z,1012.77
2018-02-09T11:15:31.575Z,1012.8
2018-02-09T11:16:31.590Z,1012.81
2018-02-09T11:18:31.611Z,1012.79
2018-02-09T11:19:31.631Z,1012.8
2018-02-09T11:20:31.637Z,1012.75
2018-02-09T11:21:31.654Z,1012.7
2018-02-09T11:22:31.671Z,1012.73
2018-02-09T11:23:31.686Z,1012.74
2018-02-09T11:24:31.702Z,1012.7
2018-02-09T11:25:31.715Z,1012.74
2018-02-09T11:26:31.727Z,1012.72
2018-02-09T11:27:31.743Z,1012.7
2018-02-09T11:28:31.752Z,1012.62
2018-02-09T11:29:31.766Z,1012.71
2018-02-09T11:30:31.780Z,1012.67
2018-02-09T11:31:31.796Z,1012.65
2018-02-09T11:32:31.813Z,1012.73
2018-02-09T11:34:31.844Z,1012.67
2018-02-09T11:35:31.857Z,1012.65
2018-02-09T11:36:31.880Z,1012.65
2018-02-09T11:37:31.881Z,1012.65
2018-02-09T11:38:31.897Z,1012.65
2018-02-09T11:39:31.909Z,1012.59
2018-02-09T11:40:31.928Z,1012.63
2018-02-09T11:41:31.946Z,1012.67
2018-02-09T11:42:31.956Z,1012.64
2018-02-09T11:43:31.980Z,1012.67
2018-02-09T11:44:31.990Z,1012.64
2018-02-09T11:45:31.996Z,1012.62
2018-02-09T11:46:32.114Z,1012.64
2018-02-09T11:47:32.029Z,1012.64
2018-02-09T11:48:32.043Z,1012.63
2018-02-09T11:50:32.071Z,1012.55
2018-02-09T11:51:32.085Z,1012.55
2018-02-09T11:52:32.102Z,1012.55
2018-02-09T11:53:32.113Z,1012.53
2018-02-09T11:54:32.134Z,1012.52
2018-02-09T11:55:32.151Z,1012.51
2018-02-09T11:56:32.166Z,1012.5
2018-02-09T11:57:32.179Z,1012.52
2018-02-09T11:58:32.186Z,1012.51
2018-02-09T11:59:32.203Z,1012.5
2018-02-09T12:00:32.217Z,1012.47
2018-02-09T12:01:32.234Z,1012.46
2018-02-09T12:02:32.248Z,1012.46
2018-02-09T12:03:32.267Z,1012.44
2018-02-09T12:04:32.285Z,1012.45
2018-02-09T12:06:32.306Z,1012.43
2018-02-09T12:07:32.323Z,1012.4
2018-02-09T12:08:32.332Z,1012.36
2018-02-09T12:09:32.346Z,1012.4
2018-02-09T12:10:32.365Z,1012.37
2018-02-09T12:11:32.378Z,1012.39
2018-02-09T12:12:32.389Z,1012.39
2018-02-09T12:13:32.409Z,1012.39
2018-02-09T12:14:32.425Z,1012.34
2018-02-09T12:15:32.457Z,1012.33
2018-02-09T12:16:32.448Z,1012.29
2018-02-09T12:17:32.515Z,1012.3
2018-02-09T12:18:32.477Z,1012.31
2018-02-09T12:19:32.494Z,1012.33
2018-02-09T12:21:32.524Z,1012.29
2018-02-09T12:22:32.534Z,1012.28
2018-02-09T12:23:32.553Z,1012.27
2018-02-09T12:24:32.572Z,1012.27
2018-02-09T12:25:32.585Z,1012.28
2018-02-09T12:26:32.593Z,1012.24
2018-02-09T12:27:32.610Z,1012.28
2018-02-09T12:28:32.627Z,1012.23
2018-02-09T12:29:32.640Z,1012.22
2018-02-09T12:30:32.658Z,1012.21
2018-02-09T12:31:32.671Z,1012.19
2018-02-09T12:32:32.677Z,1012.19
2018-02-09T12:33:32.697Z,1012.2
2018-02-09T12:34:32.711Z,1012.2
2018-02-09T12:35:32.729Z,1012.19
2018-02-09T12:36:32.740Z,1012.18
2018-02-09T12:37:32.752Z,1012.14
2018-02-09T12:38:32.763Z,1012.15
2018-02-09T12:39:32.778Z,1012.19
2018-02-09T12:40:32.798Z,1012.18
2018-02-09T12:41:32.815Z,1012.13
2018-02-09T12:42:32.827Z,1012.15
2018-02-09T12:43:32.841Z,1012.17
2018-02-09T12:44:32.861Z,1012.14
2018-02-09T12:45:32.872Z,1012.11
2018-02-09T12:46:32.885Z,1012.09
2018-02-09T12:47:32.907Z,1012.09
2018-02-09T12:48:32.914Z,1012.04